Aviation Digital Data Service (ADDS)

Output produced by METARs form (0922 UTC 26 January 2020)
found at http://www.aviationweather.gov/metar/data/
 
METAR text: EGPF 260850Z AUTO 20015KT 6000 -RA BKN014/// BKN019/// //////TCU 09/07 Q0997
Conditions at: EGPF (GLASGOW AIRPORT , GB) observed 0850 UTC 26 January 2020
Temperature: 9.0°C (48°F)
Dewpoint: 7.0°C (45°F) [RH = 87%]
Pressure (altimeter): 29.44 inches Hg (997.0 mb)
Winds: from the SSW (200 degrees) at 17 MPH (15 knots; 7.7 m/s)
Visibility: 4 miles ( 6 km)
Ceiling: 1400 feet AGL
Clouds: broken clouds at 1400 feet AGL
broken clouds at 1900 feet AGL
Weather: -RA  (light rain)

METAR text: EGPF 260820Z AUTO 19016KT 9999 -RA SCT016/// SCT025/// BKN033/// //////TCU 08/07 Q0997
Conditions at: EGPF (GLASGOW AIRPORT , GB) observed 0820 UTC 26 January 2020
Temperature: 8.0°C (46°F)
Dewpoint: 7.0°C (45°F) [RH = 93%]
Pressure (altimeter): 29.44 inches Hg (997.0 mb)
Winds: from the S (190 degrees) at 18 MPH (16 knots; 8.2 m/s)
Visibility: 6 or more miles (10+ km)
Ceiling: 3300 feet AGL
Clouds: scattered clouds at 1600 feet AGL
scattered clouds at 2500 feet AGL
broken clouds at 3300 feet AGL
Weather: -RA  (light rain)

METAR text: EGPF 260750Z AUTO 19016KT 7000 -RA SCT014/// SCT025/// BKN038/// //////TCU 08/07 Q0997
Conditions at: EGPF (GLASGOW AIRPORT , GB) observed 0750 UTC 26 January 2020
Temperature: 8.0°C (46°F)
Dewpoint: 7.0°C (45°F) [RH = 93%]
Pressure (altimeter): 29.44 inches Hg (997.0 mb)
Winds: from the S (190 degrees) at 18 MPH (16 knots; 8.2 m/s)
Visibility: 4 miles ( 7 km)
Ceiling: 3800 feet AGL
Clouds: scattered clouds at 1400 feet AGL
scattered clouds at 2500 feet AGL
broken clouds at 3800 feet AGL
Weather: -RA  (light rain)

METAR text: EGPF 260720Z AUTO 19011KT 8000 -RA BKN013/// OVC026/// //////TCU 08/07 Q0997
Conditions at: EGPF (GLASGOW AIRPORT , GB) observed 0720 UTC 26 January 2020
Temperature: 8.0°C (46°F)
Dewpoint: 7.0°C (45°F) [RH = 93%]
Pressure (altimeter): 29.44 inches Hg (997.0 mb)
Winds: from the S (190 degrees) at 13 MPH (11 knots; 5.7 m/s)
Visibility: 5 miles ( 8 km)
Ceiling: 1300 feet AGL
Clouds: broken clouds at 1300 feet AGL
overcast cloud deck at 2600 feet AGL
Weather: -RA  (light rain)

METAR text: EGPF 260650Z AUTO 19013KT 7000 -RA BKN014/// BKN020/// OVC034/// //////CB 08/07 Q0998 RERA
Conditions at: EGPF (GLASGOW AIRPORT , GB) observed 0650 UTC 26 January 2020
Temperature: 8.0°C (46°F)
Dewpoint: 7.0°C (45°F) [RH = 93%]
Pressure (altimeter): 29.47 inches Hg (998.0 mb)
Winds: from the S (190 degrees) at 15 MPH (13 knots; 6.7 m/s)
Visibility: 4 miles ( 7 km)
Ceiling: 1400 feet AGL
Clouds: broken clouds at 1400 feet AGL
broken clouds at 2000 feet AGL
overcast cloud deck at 3400 feet AGL
Weather: -RA  (light rain)

METAR text: EGPF 260620Z AUTO 18014KT 9999 -RA BKN017/// BKN022/// OVC032/// //////TCU 08/06 Q0998 RERA
Conditions at: EGPF (GLASGOW AIRPORT , GB) observed 0620 UTC 26 January 2020
Temperature: 8.0°C (46°F)
Dewpoint: 6.0°C (43°F) [RH = 87%]
Pressure (altimeter): 29.47 inches Hg (998.0 mb)
Winds: from the S (180 degrees) at 16 MPH (14 knots; 7.2 m/s)
Visibility: 6 or more miles (10+ km)
Ceiling: 1700 feet AGL
Clouds: broken clouds at 1700 feet AGL
broken clouds at 2200 feet AGL
overcast cloud deck at 3200 feet AGL
Weather: -RA  (light rain)

METAR text: EGPF 260550Z AUTO 18017KT 9999 -RA BKN022/// OVC029/// //////TCU 08/06 Q0998
Conditions at: EGPF (GLASGOW AIRPORT , GB) observed 0550 UTC 26 January 2020
Temperature: 8.0°C (46°F)
Dewpoint: 6.0°C (43°F) [RH = 87%]
Pressure (altimeter): 29.47 inches Hg (998.0 mb)
Winds: from the S (180 degrees) at 20 MPH (17 knots; 8.7 m/s)
Visibility: 6 or more miles (10+ km)
Ceiling: 2200 feet AGL
Clouds: broken clouds at 2200 feet AGL
overcast cloud deck at 2900 feet AGL
Weather: -RA  (light rain)

METAR text: EGPF 260520Z AUTO 18016KT 5000 -RA SCT029 SCT037 BKN046 08/05 Q0999
Conditions at: EGPF (GLASGOW AIRPORT , GB) observed 0520 UTC 26 January 2020
Temperature: 8.0°C (46°F)
Dewpoint: 5.0°C (41°F) [RH = 81%]
Pressure (altimeter): 29.50 inches Hg (999.0 mb)
Winds: from the S (180 degrees) at 18 MPH (16 knots; 8.2 m/s)
Visibility: 3 miles ( 5 km)
Ceiling: 4600 feet AGL
Clouds: scattered clouds at 2900 feet AGL
scattered clouds at 3700 feet AGL
broken clouds at 4600 feet AGL
Weather: -RA  (light rain)

METAR text: EGPF 260450Z AUTO 19017KT 9999 -RA SCT034/// BKN044/// //////TCU 08/05 Q0999
Conditions at: EGPF (GLASGOW AIRPORT , GB) observed 0450 UTC 26 January 2020
Temperature: 8.0°C (46°F)
Dewpoint: 5.0°C (41°F) [RH = 81%]
Pressure (altimeter): 29.50 inches Hg (999.0 mb)
Winds: from the S (190 degrees) at 20 MPH (17 knots; 8.7 m/s)
Visibility: 6 or more miles (10+ km)
Ceiling: 4400 feet AGL
Clouds: scattered clouds at 3400 feet AGL
broken clouds at 4400 feet AGL
Weather: -RA  (light rain)

METAR text: EGPF 260420Z AUTO 19015KT 9999 -RA SCT024/// BKN033/// BKN045/// //////TCU 08/05 Q1000
Conditions at: EGPF (GLASGOW AIRPORT , GB) observed 0420 UTC 26 January 2020
Temperature: 8.0°C (46°F)
Dewpoint: 5.0°C (41°F) [RH = 81%]
Pressure (altimeter): 29.53 inches Hg (1000.0 mb)
Winds: from the S (190 degrees) at 17 MPH (15 knots; 7.7 m/s)
Visibility: 6 or more miles (10+ km)
Ceiling: 3300 feet AGL
Clouds: scattered clouds at 2400 feet AGL
broken clouds at 3300 feet AGL
broken clouds at 4500 feet AGL
Weather: -RA  (light rain)

METAR text: EGPF 260350Z AUTO 20014KT 9999 -RA FEW024 SCT028 BKN048 08/05 Q1000
Conditions at: EGPF (GLASGOW AIRPORT , GB) observed 0350 UTC 26 January 2020
Temperature: 8.0°C (46°F)
Dewpoint: 5.0°C (41°F) [RH = 81%]
Pressure (altimeter): 29.53 inches Hg (1000.0 mb)
Winds: from the SSW (200 degrees) at 16 MPH (14 knots; 7.2 m/s)
Visibility: 6 or more miles (10+ km)
Ceiling: 4800 feet AGL
Clouds: few clouds at 2400 feet AGL
scattered clouds at 2800 feet AGL
broken clouds at 4800 feet AGL
Weather: -RA  (light rain)

METAR text: EGPF 260320Z AUTO 19013KT 9999 FEW025 SCT037 08/05 Q1001
Conditions at: EGPF (GLASGOW AIRPORT , GB) observed 0320 UTC 26 January 2020
Temperature: 8.0°C (46°F)
Dewpoint: 5.0°C (41°F) [RH = 81%]
Pressure (altimeter): 29.56 inches Hg (1001.0 mb)
Winds: from the S (190 degrees) at 15 MPH (13 knots; 6.7 m/s)
Visibility: 6 or more miles (10+ km)
Ceiling: at least 12,000 feet AGL
Clouds: few clouds at 2500 feet AGL
scattered clouds at 3700 feet AGL
Weather: no significant weather observed at this time

METAR text: EGPF 260250Z AUTO 19015KT 9999 SCT037 OVC046 08/04 Q1001
Conditions at: EGPF (GLASGOW AIRPORT , GB) observed 0250 UTC 26 January 2020
Temperature: 8.0°C (46°F)
Dewpoint: 4.0°C (39°F) [RH = 76%]
Pressure (altimeter): 29.56 inches Hg (1001.0 mb)
Winds: from the S (190 degrees) at 17 MPH (15 knots; 7.7 m/s)
Visibility: 6 or more miles (10+ km)
Ceiling: 4600 feet AGL
Clouds: scattered clouds at 3700 feet AGL
overcast cloud deck at 4600 feet AGL
Weather: no significant weather observed at this time

METAR text: EGPF 260220Z AUTO 18011KT 9999 -RA BKN035 OVC047 08/05 Q1002
Conditions at: EGPF (GLASGOW AIRPORT , GB) observed 0220 UTC 26 January 2020
Temperature: 8.0°C (46°F)
Dewpoint: 5.0°C (41°F) [RH = 81%]
Pressure (altimeter): 29.59 inches Hg (1002.0 mb)
Winds: from the S (180 degrees) at 13 MPH (11 knots; 5.7 m/s)
Visibility: 6 or more miles (10+ km)
Ceiling: 3500 feet AGL
Clouds: broken clouds at 3500 feet AGL
overcast cloud deck at 4700 feet AGL
Weather: -RA  (light rain)

METAR text: EGPF 260150Z AUTO 18010KT 9999 -RA SCT023 BKN033 OVC039 08/05 Q1002
Conditions at: EGPF (GLASGOW AIRPORT , GB) observed 0150 UTC 26 January 2020
Temperature: 8.0°C (46°F)
Dewpoint: 5.0°C (41°F) [RH = 81%]
Pressure (altimeter): 29.59 inches Hg (1002.0 mb)
Winds: from the S (180 degrees) at 12 MPH (10 knots; 5.1 m/s)
Visibility: 6 or more miles (10+ km)
Ceiling: 3300 feet AGL
Clouds: scattered clouds at 2300 feet AGL
broken clouds at 3300 feet AGL
overcast cloud deck at 3900 feet AGL
Weather: -RA  (light rain)

METAR text: EGPF 260120Z AUTO 19008KT 150V230 9999 SCT023 OVC038 08/04 Q1003
Conditions at: EGPF (GLASGOW AIRPORT , GB) observed 0120 UTC 26 January 2020
Temperature: 8.0°C (46°F)
Dewpoint: 4.0°C (39°F) [RH = 76%]
Pressure (altimeter): 29.62 inches Hg (1003.0 mb)
Winds: from the S (190 degrees) at 9 MPH (8 knots; 4.1 m/s)
Visibility: 6 or more miles (10+ km)
Ceiling: 3800 feet AGL
Clouds: scattered clouds at 2300 feet AGL
overcast cloud deck at 3800 feet AGL
Weather: no significant weather observed at this time

METAR text: EGPF 260050Z AUTO 18011KT 150V210 9999 OVC040 08/04 Q1003
Conditions at: EGPF (GLASGOW AIRPORT , GB) observed 0050 UTC 26 January 2020
Temperature: 8.0°C (46°F)
Dewpoint: 4.0°C (39°F) [RH = 76%]
Pressure (altimeter): 29.62 inches Hg (1003.0 mb)
Winds: from the S (180 degrees) at 13 MPH (11 knots; 5.7 m/s)
Visibility: 6 or more miles (10+ km)
Ceiling: 4000 feet AGL
Clouds: overcast cloud deck at 4000 feet AGL
Weather: no significant weather observed at this time

METAR text: EGPF 260020Z AUTO 19009KT 9999 OVC044 08/04 Q1004
Conditions at: EGPF (GLASGOW AIRPORT , GB) observed 0020 UTC 26 January 2020
Temperature: 8.0°C (46°F)
Dewpoint: 4.0°C (39°F) [RH = 76%]
Pressure (altimeter): 29.65 inches Hg (1004.0 mb)
Winds: from the S (190 degrees) at 10 MPH (9 knots; 4.6 m/s)
Visibility: 6 or more miles (10+ km)
Ceiling: 4400 feet AGL
Clouds: overcast cloud deck at 4400 feet AGL
Weather: no significant weather observed at this time

METAR text: EGPF 252350Z AUTO 18012KT 9999 -RA BKN043 08/05 Q1004
Conditions at: EGPF (GLASGOW AIRPORT , GB) observed 2350 UTC 25 January 2020
Temperature: 8.0°C (46°F)
Dewpoint: 5.0°C (41°F) [RH = 81%]
Pressure (altimeter): 29.65 inches Hg (1004.0 mb)
Winds: from the S (180 degrees) at 14 MPH (12 knots; 6.2 m/s)
Visibility: 6 or more miles (10+ km)
Ceiling: 4300 feet AGL
Clouds: broken clouds at 4300 feet AGL
Weather: -RA  (light rain)

METAR text: EGPF 252320Z AUTO 18010KT 9999 OVC042 08/05 Q1005
Conditions at: EGPF (GLASGOW AIRPORT , GB) observed 2320 UTC 25 January 2020
Temperature: 8.0°C (46°F)
Dewpoint: 5.0°C (41°F) [RH = 81%]
Pressure (altimeter): 29.68 inches Hg (1005.0 mb)
Winds: from the S (180 degrees) at 12 MPH (10 knots; 5.1 m/s)
Visibility: 6 or more miles (10+ km)
Ceiling: 4200 feet AGL
Clouds: overcast cloud deck at 4200 feet AGL
Weather: no significant weather observed at this time

METAR text: EGPF 252250Z AUTO 19010KT 9999 FEW023 OVC043 08/05 Q1005
Conditions at: EGPF (GLASGOW AIRPORT , GB) observed 2250 UTC 25 January 2020
Temperature: 8.0°C (46°F)
Dewpoint: 5.0°C (41°F) [RH = 81%]
Pressure (altimeter): 29.68 inches Hg (1005.0 mb)
Winds: from the S (190 degrees) at 12 MPH (10 knots; 5.1 m/s)
Visibility: 6 or more miles (10+ km)
Ceiling: 4300 feet AGL
Clouds: few clouds at 2300 feet AGL
overcast cloud deck at 4300 feet AGL
Weather: no significant weather observed at this time

METAR text: EGPF 252220Z AUTO 19012KT 9999 FEW021 OVC044 08/05 Q1005
Conditions at: EGPF (GLASGOW AIRPORT , GB) observed 2220 UTC 25 January 2020
Temperature: 8.0°C (46°F)
Dewpoint: 5.0°C (41°F) [RH = 81%]
Pressure (altimeter): 29.68 inches Hg (1005.0 mb)
Winds: from the S (190 degrees) at 14 MPH (12 knots; 6.2 m/s)
Visibility: 6 or more miles (10+ km)
Ceiling: 4400 feet AGL
Clouds: few clouds at 2100 feet AGL
overcast cloud deck at 4400 feet AGL
Weather: no significant weather observed at this time

METAR text: EGPF 252150Z AUTO 23009KT 180V280 9999 BKN019 OVC046 07/04 Q1006
Conditions at: EGPF (GLASGOW AIRPORT , GB) observed 2150 UTC 25 January 2020
Temperature: 7.0°C (45°F)
Dewpoint: 4.0°C (39°F) [RH = 81%]
Pressure (altimeter): 29.70 inches Hg (1006.0 mb)
Winds: from the SW (230 degrees) at 10 MPH (9 knots; 4.6 m/s)
Visibility: 6 or more miles (10+ km)
Ceiling: 1900 feet AGL
Clouds: broken clouds at 1900 feet AGL
overcast cloud deck at 4600 feet AGL
Weather: no significant weather observed at this time

METAR text: EGPF 252120Z AUTO 23005KT 190V270 9999 BKN019 OVC045 07/05 Q1006
Conditions at: EGPF (GLASGOW AIRPORT , GB) observed 2120 UTC 25 January 2020
Temperature: 7.0°C (45°F)
Dewpoint: 5.0°C (41°F) [RH = 87%]
Pressure (altimeter): 29.70 inches Hg (1006.0 mb)
Winds: from the SW (230 degrees) at 6 MPH (5 knots; 2.6 m/s)
Visibility: 6 or more miles (10+ km)
Ceiling: 1900 feet AGL
Clouds: broken clouds at 1900 feet AGL
overcast cloud deck at 4500 feet AGL
Weather: no significant weather observed at this time

METAR text: EGPF 252050Z AUTO 23006KT 9999 BKN018 OVC043 07/05 Q1006
Conditions at: EGPF (GLASGOW AIRPORT , GB) observed 2050 UTC 25 January 2020
Temperature: 7.0°C (45°F)
Dewpoint: 5.0°C (41°F) [RH = 87%]
Pressure (altimeter): 29.70 inches Hg (1006.0 mb)
Winds: from the SW (230 degrees) at 7 MPH (6 knots; 3.1 m/s)
Visibility: 6 or more miles (10+ km)
Ceiling: 1800 feet AGL
Clouds: broken clouds at 1800 feet AGL
overcast cloud deck at 4300 feet AGL
Weather: no significant weather observed at this time

METAR text: EGPF 252020Z AUTO 23004KT 9999 BKN017 OVC043 07/05 Q1007
Conditions at: EGPF (GLASGOW AIRPORT , GB) observed 2020 UTC 25 January 2020
Temperature: 7.0°C (45°F)
Dewpoint: 5.0°C (41°F) [RH = 87%]
Pressure (altimeter): 29.73 inches Hg (1007.0 mb)
Winds: from the SW (230 degrees) at 5 MPH (4 knots; 2.1 m/s)
Visibility: 6 or more miles (10+ km)
Ceiling: 1700 feet AGL
Clouds: broken clouds at 1700 feet AGL
overcast cloud deck at 4300 feet AGL
Weather: no significant weather observed at this time

METAR text: EGPF 251950Z AUTO 21008KT 9999 BKN017 OVC041 07/05 Q1007
Conditions at: EGPF (GLASGOW AIRPORT , GB) observed 1950 UTC 25 January 2020
Temperature: 7.0°C (45°F)
Dewpoint: 5.0°C (41°F) [RH = 87%]
Pressure (altimeter): 29.73 inches Hg (1007.0 mb)
Winds: from the SSW (210 degrees) at 9 MPH (8 knots; 4.1 m/s)
Visibility: 6 or more miles (10+ km)
Ceiling: 1700 feet AGL
Clouds: broken clouds at 1700 feet AGL
overcast cloud deck at 4100 feet AGL
Weather: no significant weather observed at this time

METAR text: EGPF 251920Z AUTO 20008KT 9999 OVC041 08/04 Q1007
Conditions at: EGPF (GLASGOW AIRPORT , GB) observed 1920 UTC 25 January 2020
Temperature: 8.0°C (46°F)
Dewpoint: 4.0°C (39°F) [RH = 76%]
Pressure (altimeter): 29.73 inches Hg (1007.0 mb)
Winds: from the SSW (200 degrees) at 9 MPH (8 knots; 4.1 m/s)
Visibility: 6 or more miles (10+ km)
Ceiling: 4100 feet AGL
Clouds: overcast cloud deck at 4100 feet AGL
Weather: no significant weather observed at this time

METAR text: EGPF 251850Z AUTO 22008KT 180V240 9999 BKN039 OVC047 08/04 Q1007
Conditions at: EGPF (GLASGOW AIRPORT , GB) observed 1850 UTC 25 January 2020
Temperature: 8.0°C (46°F)
Dewpoint: 4.0°C (39°F) [RH = 76%]
Pressure (altimeter): 29.73 inches Hg (1007.0 mb)
Winds: from the SW (220 degrees) at 9 MPH (8 knots; 4.1 m/s)
Visibility: 6 or more miles (10+ km)
Ceiling: 3900 feet AGL
Clouds: broken clouds at 3900 feet AGL
overcast cloud deck at 4700 feet AGL
Weather: no significant weather observed at this time

METAR text: EGPF 251820Z AUTO 22006KT 9999 BKN037 OVC047 07/04 Q1007
Conditions at: EGPF (GLASGOW AIRPORT , GB) observed 1820 UTC 25 January 2020
Temperature: 7.0°C (45°F)
Dewpoint: 4.0°C (39°F) [RH = 81%]
Pressure (altimeter): 29.73 inches Hg (1007.0 mb)
Winds: from the SW (220 degrees) at 7 MPH (6 knots; 3.1 m/s)
Visibility: 6 or more miles (10+ km)
Ceiling: 3700 feet AGL
Clouds: broken clouds at 3700 feet AGL
overcast cloud deck at 4700 feet AGL
Weather: no significant weather observed at this time

METAR text: EGPF 251750Z AUTO VRB04KT 9999 BKN034 OVC042 07/04 Q1007
Conditions at: EGPF (GLASGOW AIRPORT , GB) observed 1750 UTC 25 January 2020
Temperature: 7.0°C (45°F)
Dewpoint: 4.0°C (39°F) [RH = 81%]
Pressure (altimeter): 29.73 inches Hg (1007.0 mb)
Winds: variable direction winds at 5 MPH (4 knots; 2.1 m/s)
Visibility: 6 or more miles (10+ km)
Ceiling: 3400 feet AGL
Clouds: broken clouds at 3400 feet AGL
overcast cloud deck at 4200 feet AGL
Weather: no significant weather observed at this time

METAR text: EGPF 251720Z AUTO 21007KT 9999 FEW023 BKN033 OVC042 07/04 Q1008
Conditions at: EGPF (GLASGOW AIRPORT , GB) observed 1720 UTC 25 January 2020
Temperature: 7.0°C (45°F)
Dewpoint: 4.0°C (39°F) [RH = 81%]
Pressure (altimeter): 29.76 inches Hg (1008.0 mb)
Winds: from the SSW (210 degrees) at 8 MPH (7 knots; 3.6 m/s)
Visibility: 6 or more miles (10+ km)
Ceiling: 3300 feet AGL
Clouds: few clouds at 2300 feet AGL
broken clouds at 3300 feet AGL
overcast cloud deck at 4200 feet AGL
Weather: no significant weather observed at this time

METAR text: EGPF 251650Z AUTO 21009KT 9999 FEW018 SCT028 BKN033 07/05 Q1008
Conditions at: EGPF (GLASGOW AIRPORT , GB) observed 1650 UTC 25 January 2020
Temperature: 7.0°C (45°F)
Dewpoint: 5.0°C (41°F) [RH = 87%]
Pressure (altimeter): 29.76 inches Hg (1008.0 mb)
Winds: from the SSW (210 degrees) at 10 MPH (9 knots; 4.6 m/s)
Visibility: 6 or more miles (10+ km)
Ceiling: 3300 feet AGL
Clouds: few clouds at 1800 feet AGL
scattered clouds at 2800 feet AGL
broken clouds at 3300 feet AGL
Weather: no significant weather observed at this time

METAR text: EGPF 251620Z AUTO 21011KT 9999 OVC025 07/04 Q1008
Conditions at: EGPF (GLASGOW AIRPORT , GB) observed 1620 UTC 25 January 2020
Temperature: 7.0°C (45°F)
Dewpoint: 4.0°C (39°F) [RH = 81%]
Pressure (altimeter): 29.76 inches Hg (1008.0 mb)
Winds: from the SSW (210 degrees) at 13 MPH (11 knots; 5.7 m/s)
Visibility: 6 or more miles (10+ km)
Ceiling: 2500 feet AGL
Clouds: overcast cloud deck at 2500 feet AGL
Weather: no significant weather observed at this time

METAR text: EGPF 251550Z AUTO 22010KT 9999 BKN021 OVC025 07/04 Q1009
Conditions at: EGPF (GLASGOW AIRPORT , GB) observed 1550 UTC 25 January 2020
Temperature: 7.0°C (45°F)
Dewpoint: 4.0°C (39°F) [RH = 81%]
Pressure (altimeter): 29.79 inches Hg (1009.0 mb)
Winds: from the SW (220 degrees) at 12 MPH (10 knots; 5.1 m/s)
Visibility: 6 or more miles (10+ km)
Ceiling: 2100 feet AGL
Clouds: broken clouds at 2100 feet AGL
overcast cloud deck at 2500 feet AGL
Weather: no significant weather observed at this time

METAR text: EGPF 251520Z AUTO 23011KT 9999 OVC021 07/04 Q1009
Conditions at: EGPF (GLASGOW AIRPORT , GB) observed 1520 UTC 25 January 2020
Temperature: 7.0°C (45°F)
Dewpoint: 4.0°C (39°F) [RH = 81%]
Pressure (altimeter): 29.79 inches Hg (1009.0 mb)
Winds: from the SW (230 degrees) at 13 MPH (11 knots; 5.7 m/s)
Visibility: 6 or more miles (10+ km)
Ceiling: 2100 feet AGL
Clouds: overcast cloud deck at 2100 feet AGL
Weather: no significant weather observed at this time

METAR text: EGPF 251450Z AUTO 23012KT 9999 OVC018 07/04 Q1009
Conditions at: EGPF (GLASGOW AIRPORT , GB) observed 1450 UTC 25 January 2020
Temperature: 7.0°C (45°F)
Dewpoint: 4.0°C (39°F) [RH = 81%]
Pressure (altimeter): 29.79 inches Hg (1009.0 mb)
Winds: from the SW (230 degrees) at 14 MPH (12 knots; 6.2 m/s)
Visibility: 6 or more miles (10+ km)
Ceiling: 1800 feet AGL
Clouds: overcast cloud deck at 1800 feet AGL
Weather: no significant weather observed at this time

METAR text: EGPF 251420Z AUTO 22012KT 9999 BKN015 OVC025 07/05 Q1009
Conditions at: EGPF (GLASGOW AIRPORT , GB) observed 1420 UTC 25 January 2020
Temperature: 7.0°C (45°F)
Dewpoint: 5.0°C (41°F) [RH = 87%]
Pressure (altimeter): 29.79 inches Hg (1009.0 mb)
Winds: from the SW (220 degrees) at 14 MPH (12 knots; 6.2 m/s)
Visibility: 6 or more miles (10+ km)
Ceiling: 1500 feet AGL
Clouds: broken clouds at 1500 feet AGL
overcast cloud deck at 2500 feet AGL
Weather: no significant weather observed at this time

METAR text: EGPF 251350Z AUTO 23007KT 200V260 9999 BKN016 OVC020 07/05 Q1010
Conditions at: EGPF (GLASGOW AIRPORT , GB) observed 1350 UTC 25 January 2020
Temperature: 7.0°C (45°F)
Dewpoint: 5.0°C (41°F) [RH = 87%]
Pressure (altimeter): 29.82 inches Hg (1010.0 mb)
Winds: from the SW (230 degrees) at 8 MPH (7 knots; 3.6 m/s)
Visibility: 6 or more miles (10+ km)
Ceiling: 1600 feet AGL
Clouds: broken clouds at 1600 feet AGL
overcast cloud deck at 2000 feet AGL
Weather: no significant weather observed at this time

METAR text: EGPF 251320Z AUTO 22011KT 9999 BKN015 OVC024 07/05 Q1010
Conditions at: EGPF (GLASGOW AIRPORT , GB) observed 1320 UTC 25 January 2020
Temperature: 7.0°C (45°F)
Dewpoint: 5.0°C (41°F) [RH = 87%]
Pressure (altimeter): 29.82 inches Hg (1010.0 mb)
Winds: from the SW (220 degrees) at 13 MPH (11 knots; 5.7 m/s)
Visibility: 6 or more miles (10+ km)
Ceiling: 1500 feet AGL
Clouds: broken clouds at 1500 feet AGL
overcast cloud deck at 2400 feet AGL
Weather: no significant weather observed at this time

METAR text: EGPF 251250Z 21010KT 9999 SCT012 BKN016 OVC022 07/05 Q1011
Conditions at: EGPF (GLASGOW AIRPORT , GB) observed 1250 UTC 25 January 2020
Temperature: 7.0°C (45°F)
Dewpoint: 5.0°C (41°F) [RH = 87%]
Pressure (altimeter): 29.85 inches Hg (1011.0 mb)
Winds: from the SSW (210 degrees) at 12 MPH (10 knots; 5.1 m/s)
Visibility: 6 or more miles (10+ km)
Ceiling: 1600 feet AGL
Clouds: scattered clouds at 1200 feet AGL
broken clouds at 1600 feet AGL
overcast cloud deck at 2200 feet AGL
Weather: no significant weather observed at this time

METAR text: EGPF 251220Z 21012KT 9999 SCT012 BKN021 07/05 Q1011
Conditions at: EGPF (GLASGOW AIRPORT , GB) observed 1220 UTC 25 January 2020
Temperature: 7.0°C (45°F)
Dewpoint: 5.0°C (41°F) [RH = 87%]
Pressure (altimeter): 29.85 inches Hg (1011.0 mb)
Winds: from the SSW (210 degrees) at 14 MPH (12 knots; 6.2 m/s)
Visibility: 6 or more miles (10+ km)
Ceiling: 2100 feet AGL
Clouds: scattered clouds at 1200 feet AGL
broken clouds at 2100 feet AGL
Weather: no significant weather observed at this time

METAR text: EGPF 251150Z AUTO 21012KT 9999 BKN011 OVC016 07/05 Q1011
Conditions at: EGPF (GLASGOW AIRPORT , GB) observed 1150 UTC 25 January 2020
Temperature: 7.0°C (45°F)
Dewpoint: 5.0°C (41°F) [RH = 87%]
Pressure (altimeter): 29.85 inches Hg (1011.0 mb)
Winds: from the SSW (210 degrees) at 14 MPH (12 knots; 6.2 m/s)
Visibility: 6 or more miles (10+ km)
Ceiling: 1100 feet AGL
Clouds: broken clouds at 1100 feet AGL
overcast cloud deck at 1600 feet AGL
Weather: no significant weather observed at this time

METAR text: EGPF 251120Z 21015KT 8000 FEW010 BKN014 07/05 Q1012
Conditions at: EGPF (GLASGOW AIRPORT , GB) observed 1120 UTC 25 January 2020
Temperature: 7.0°C (45°F)
Dewpoint: 5.0°C (41°F) [RH = 87%]
Pressure (altimeter): 29.88 inches Hg (1012.0 mb)
Winds: from the SSW (210 degrees) at 17 MPH (15 knots; 7.7 m/s)
Visibility: 5 miles ( 8 km)
Ceiling: 1400 feet AGL
Clouds: few clouds at 1000 feet AGL
broken clouds at 1400 feet AGL
Weather: no significant weather observed at this time

METAR text: EGPF 251050Z AUTO 21013KT 9999 -RA BKN009 OVC015 06/05 Q1012
Conditions at: EGPF (GLASGOW AIRPORT , GB) observed 1050 UTC 25 January 2020
Temperature: 6.0°C (43°F)
Dewpoint: 5.0°C (41°F) [RH = 93%]
Pressure (altimeter): 29.88 inches Hg (1012.0 mb)
Winds: from the SSW (210 degrees) at 15 MPH (13 knots; 6.7 m/s)
Visibility: 6 or more miles (10+ km)
Ceiling: 900 feet AGL
Clouds: broken clouds at 900 feet AGL
overcast cloud deck at 1500 feet AGL
Weather: -RA  (light rain)

METAR text: EGPF 251020Z AUTO 21013KT 5000 -RADZ OVC009 06/05 Q1012
Conditions at: EGPF (GLASGOW AIRPORT , GB) observed 1020 UTC 25 January 2020
Temperature: 6.0°C (43°F)
Dewpoint: 5.0°C (41°F) [RH = 93%]
Pressure (altimeter): 29.88 inches Hg (1012.0 mb)
Winds: from the SSW (210 degrees) at 15 MPH (13 knots; 6.7 m/s)
Visibility: 3 miles ( 5 km)
Ceiling: 900 feet AGL
Clouds: overcast cloud deck at 900 feet AGL
Weather: -RA -DZ  (light rain, light drizzle)

METAR text: EGPF 250950Z AUTO 22015KT 7000 OVC009 06/05 Q1012
Conditions at: EGPF (GLASGOW AIRPORT , GB) observed 0950 UTC 25 January 2020
Temperature: 6.0°C (43°F)
Dewpoint: 5.0°C (41°F) [RH = 93%]
Pressure (altimeter): 29.88 inches Hg (1012.0 mb)
Winds: from the SW (220 degrees) at 17 MPH (15 knots; 7.7 m/s)
Visibility: 4 miles ( 7 km)
Ceiling: 900 feet AGL
Clouds: overcast cloud deck at 900 feet AGL
Weather: no significant weather observed at this time

METAR text: EGPF 250920Z AUTO 22021KT 9999 BKN010 OVC017 06/05 Q1012
Conditions at: EGPF (GLASGOW AIRPORT , GB) observed 0920 UTC 25 January 2020
Temperature: 6.0°C (43°F)
Dewpoint: 5.0°C (41°F) [RH = 93%]
Pressure (altimeter): 29.88 inches Hg (1012.0 mb)
Winds: from the SW (220 degrees) at 24 MPH (21 knots; 10.8 m/s)
Visibility: 6 or more miles (10+ km)
Ceiling: 1000 feet AGL
Clouds: broken clouds at 1000 feet AGL
overcast cloud deck at 1700 feet AGL
Weather: no significant weather observed at this time

METAR text: EGPF 250850Z AUTO 22017KT 9999 OVC009 07/05 Q1012
Conditions at: EGPF (GLASGOW AIRPORT , GB) observed 0850 UTC 25 January 2020
Temperature: 7.0°C (45°F)
Dewpoint: 5.0°C (41°F) [RH = 87%]
Pressure (altimeter): 29.88 inches Hg (1012.0 mb)
Winds: from the SW (220 degrees) at 20 MPH (17 knots; 8.7 m/s)
Visibility: 6 or more miles (10+ km)
Ceiling: 900 feet AGL
Clouds: overcast cloud deck at 900 feet AGL
Weather: no significant weather observed at this time

METAR text: EGPF 250820Z AUTO 22011KT 9999 OVC009 07/05 Q1012
Conditions at: EGPF (GLASGOW AIRPORT , GB) observed 0820 UTC 25 January 2020
Temperature: 7.0°C (45°F)
Dewpoint: 5.0°C (41°F) [RH = 87%]
Pressure (altimeter): 29.88 inches Hg (1012.0 mb)
Winds: from the SW (220 degrees) at 13 MPH (11 knots; 5.7 m/s)
Visibility: 6 or more miles (10+ km)
Ceiling: 900 feet AGL
Clouds: overcast cloud deck at 900 feet AGL
Weather: no significant weather observed at this time

METAR text: EGPF 250750Z AUTO 21009KT 9999 OVC009 07/05 Q1012
Conditions at: EGPF (GLASGOW AIRPORT , GB) observed 0750 UTC 25 January 2020
Temperature: 7.0°C (45°F)
Dewpoint: 5.0°C (41°F) [RH = 87%]
Pressure (altimeter): 29.88 inches Hg (1012.0 mb)
Winds: from the SSW (210 degrees) at 10 MPH (9 knots; 4.6 m/s)
Visibility: 6 or more miles (10+ km)
Ceiling: 900 feet AGL
Clouds: overcast cloud deck at 900 feet AGL
Weather: no significant weather observed at this time

METAR text: EGPF 250720Z AUTO 21010KT 9999 OVC009 07/05 Q1012
Conditions at: EGPF (GLASGOW AIRPORT , GB) observed 0720 UTC 25 January 2020
Temperature: 7.0°C (45°F)
Dewpoint: 5.0°C (41°F) [RH = 87%]
Pressure (altimeter): 29.88 inches Hg (1012.0 mb)
Winds: from the SSW (210 degrees) at 12 MPH (10 knots; 5.1 m/s)
Visibility: 6 or more miles (10+ km)
Ceiling: 900 feet AGL
Clouds: overcast cloud deck at 900 feet AGL
Weather: no significant weather observed at this time

METAR text: EGPF 250650Z AUTO 20009KT 170V230 9999 OVC009 07/05 Q1012
Conditions at: EGPF (GLASGOW AIRPORT , GB) observed 0650 UTC 25 January 2020
Temperature: 7.0°C (45°F)
Dewpoint: 5.0°C (41°F) [RH = 87%]
Pressure (altimeter): 29.88 inches Hg (1012.0 mb)
Winds: from the SSW (200 degrees) at 10 MPH (9 knots; 4.6 m/s)
Visibility: 6 or more miles (10+ km)
Ceiling: 900 feet AGL
Clouds: overcast cloud deck at 900 feet AGL
Weather: no significant weather observed at this time

METAR text: EGPF 250620Z AUTO 21006KT 9999 OVC009 07/05 Q1012
Conditions at: EGPF (GLASGOW AIRPORT , GB) observed 0620 UTC 25 January 2020
Temperature: 7.0°C (45°F)
Dewpoint: 5.0°C (41°F) [RH = 87%]
Pressure (altimeter): 29.88 inches Hg (1012.0 mb)
Winds: from the SSW (210 degrees) at 7 MPH (6 knots; 3.1 m/s)
Visibility: 6 or more miles (10+ km)
Ceiling: 900 feet AGL
Clouds: overcast cloud deck at 900 feet AGL
Weather: no significant weather observed at this time

METAR text: EGPF 250550Z AUTO 20013KT 9999 OVC009 07/05 Q1012
Conditions at: EGPF (GLASGOW AIRPORT , GB) observed 0550 UTC 25 January 2020
Temperature: 7.0°C (45°F)
Dewpoint: 5.0°C (41°F) [RH = 87%]
Pressure (altimeter): 29.88 inches Hg (1012.0 mb)
Winds: from the SSW (200 degrees) at 15 MPH (13 knots; 6.7 m/s)
Visibility: 6 or more miles (10+ km)
Ceiling: 900 feet AGL
Clouds: overcast cloud deck at 900 feet AGL
Weather: no significant weather observed at this time

METAR text: EGPF 250520Z AUTO 22007KT 9999 OVC009 07/05 Q1013
Conditions at: EGPF (GLASGOW AIRPORT , GB) observed 0520 UTC 25 January 2020
Temperature: 7.0°C (45°F)
Dewpoint: 5.0°C (41°F) [RH = 87%]
Pressure (altimeter): 29.91 inches Hg (1013.0 mb)
Winds: from the SW (220 degrees) at 8 MPH (7 knots; 3.6 m/s)
Visibility: 6 or more miles (10+ km)
Ceiling: 900 feet AGL
Clouds: overcast cloud deck at 900 feet AGL
Weather: no significant weather observed at this time

METAR text: EGPF 250450Z AUTO 20013KT 9999 OVC009 07/05 Q1013
Conditions at: EGPF (GLASGOW AIRPORT , GB) observed 0450 UTC 25 January 2020
Temperature: 7.0°C (45°F)
Dewpoint: 5.0°C (41°F) [RH = 87%]
Pressure (altimeter): 29.91 inches Hg (1013.0 mb)
Winds: from the SSW (200 degrees) at 15 MPH (13 knots; 6.7 m/s)
Visibility: 6 or more miles (10+ km)
Ceiling: 900 feet AGL
Clouds: overcast cloud deck at 900 feet AGL
Weather: no significant weather observed at this time

METAR text: EGPF 250420Z AUTO 21011KT 9999 OVC009 07/06 Q1013
Conditions at: EGPF (GLASGOW AIRPORT , GB) observed 0420 UTC 25 January 2020
Temperature: 7.0°C (45°F)
Dewpoint: 6.0°C (43°F) [RH = 93%]
Pressure (altimeter): 29.91 inches Hg (1013.0 mb)
Winds: from the SSW (210 degrees) at 13 MPH (11 knots; 5.7 m/s)
Visibility: 6 or more miles (10+ km)
Ceiling: 900 feet AGL
Clouds: overcast cloud deck at 900 feet AGL
Weather: no significant weather observed at this time

METAR text: EGPF 250350Z AUTO 21011KT 9999 OVC009 07/06 Q1013
Conditions at: EGPF (GLASGOW AIRPORT , GB) observed 0350 UTC 25 January 2020
Temperature: 7.0°C (45°F)
Dewpoint: 6.0°C (43°F) [RH = 93%]
Pressure (altimeter): 29.91 inches Hg (1013.0 mb)
Winds: from the SSW (210 degrees) at 13 MPH (11 knots; 5.7 m/s)
Visibility: 6 or more miles (10+ km)
Ceiling: 900 feet AGL
Clouds: overcast cloud deck at 900 feet AGL
Weather: no significant weather observed at this time

METAR text: EGPF 250320Z AUTO 21011KT 9999 OVC010 07/06 Q1014
Conditions at: EGPF (GLASGOW AIRPORT , GB) observed 0320 UTC 25 January 2020
Temperature: 7.0°C (45°F)
Dewpoint: 6.0°C (43°F) [RH = 93%]
Pressure (altimeter): 29.94 inches Hg (1014.0 mb)
Winds: from the SSW (210 degrees) at 13 MPH (11 knots; 5.7 m/s)
Visibility: 6 or more miles (10+ km)
Ceiling: 1000 feet AGL
Clouds: overcast cloud deck at 1000 feet AGL
Weather: no significant weather observed at this time

METAR text: EGPF 250250Z AUTO 21014KT 9999 BKN010 OVC015 07/06 Q1014
Conditions at: EGPF (GLASGOW AIRPORT , GB) observed 0250 UTC 25 January 2020
Temperature: 7.0°C (45°F)
Dewpoint: 6.0°C (43°F) [RH = 93%]
Pressure (altimeter): 29.94 inches Hg (1014.0 mb)
Winds: from the SSW (210 degrees) at 16 MPH (14 knots; 7.2 m/s)
Visibility: 6 or more miles (10+ km)
Ceiling: 1000 feet AGL
Clouds: broken clouds at 1000 feet AGL
overcast cloud deck at 1500 feet AGL
Weather: no significant weather observed at this time

METAR text: EGPF 250220Z AUTO 21016KT 9999 BKN009 OVC015 07/06 Q1014
Conditions at: EGPF (GLASGOW AIRPORT , GB) observed 0220 UTC 25 January 2020
Temperature: 7.0°C (45°F)
Dewpoint: 6.0°C (43°F) [RH = 93%]
Pressure (altimeter): 29.94 inches Hg (1014.0 mb)
Winds: from the SSW (210 degrees) at 18 MPH (16 knots; 8.2 m/s)
Visibility: 6 or more miles (10+ km)
Ceiling: 900 feet AGL
Clouds: broken clouds at 900 feet AGL
overcast cloud deck at 1500 feet AGL
Weather: no significant weather observed at this time

METAR text: EGPF 250150Z AUTO 22013KT 6000 -RA OVC006 07/06 Q1014
Conditions at: EGPF (GLASGOW AIRPORT , GB) observed 0150 UTC 25 January 2020
Temperature: 7.0°C (45°F)
Dewpoint: 6.0°C (43°F) [RH = 93%]
Pressure (altimeter): 29.94 inches Hg (1014.0 mb)
Winds: from the SW (220 degrees) at 15 MPH (13 knots; 6.7 m/s)
Visibility: 4 miles ( 6 km)
Ceiling: 600 feet AGL
Clouds: overcast cloud deck at 600 feet AGL
Weather: -RA  (light rain)

METAR text: EGPF 250120Z AUTO 22013KT 3900 -DZ OVC006 07/06 Q1015
Conditions at: EGPF (GLASGOW AIRPORT , GB) observed 0120 UTC 25 January 2020
Temperature: 7.0°C (45°F)
Dewpoint: 6.0°C (43°F) [RH = 93%]
Pressure (altimeter): 29.97 inches Hg (1015.0 mb)
Winds: from the SW (220 degrees) at 15 MPH (13 knots; 6.7 m/s)
Visibility: 2.42 miles (3.89 km)
Ceiling: 600 feet AGL
Clouds: overcast cloud deck at 600 feet AGL
Weather: -DZ  (light drizzle)

METAR text: EGPF 250050Z AUTO 22015KT 3100 HZ OVC006 07/06 Q1015
Conditions at: EGPF (GLASGOW AIRPORT , GB) observed 0050 UTC 25 January 2020
Temperature: 7.0°C (45°F)
Dewpoint: 6.0°C (43°F) [RH = 93%]
Pressure (altimeter): 29.97 inches Hg (1015.0 mb)
Winds: from the SW (220 degrees) at 17 MPH (15 knots; 7.7 m/s)
Visibility: 1.93 miles (3.11 km)
Ceiling: 600 feet AGL
Clouds: overcast cloud deck at 600 feet AGL
Weather: HZ  (haze)

METAR text: EGPF 250020Z AUTO 22013KT 7000 -RA OVC006 07/07 Q1015
Conditions at: EGPF (GLASGOW AIRPORT , GB) observed 0020 UTC 25 January 2020
Temperature: 7.0°C (45°F)
Dewpoint: 7.0°C (45°F) [RH = 100%]
Pressure (altimeter): 29.97 inches Hg (1015.0 mb)
Winds: from the SW (220 degrees) at 15 MPH (13 knots; 6.7 m/s)
Visibility: 4 miles ( 7 km)
Ceiling: 600 feet AGL
Clouds: overcast cloud deck at 600 feet AGL
Weather: -RA  (light rain)

METAR text: EGPF 242350Z AUTO 22012KT 4200 -RADZ OVC005 08/07 Q1016
Conditions at: EGPF (GLASGOW AIRPORT , GB) observed 2350 UTC 24 January 2020
Temperature: 8.0°C (46°F)
Dewpoint: 7.0°C (45°F) [RH = 93%]
Pressure (altimeter): 30.00 inches Hg (1016.0 mb)
Winds: from the SW (220 degrees) at 14 MPH (12 knots; 6.2 m/s)
Visibility: 2.61 miles (4.20 km)
Ceiling: 500 feet AGL
Clouds: overcast cloud deck at 500 feet AGL
Weather: -RA -DZ  (light rain, light drizzle)

METAR text: EGPF 242320Z AUTO 22011KT 2500 -RADZ BKN005 OVC017 08/07 Q1016 REDZ
Conditions at: EGPF (GLASGOW AIRPORT , GB) observed 2320 UTC 24 January 2020
Temperature: 8.0°C (46°F)
Dewpoint: 7.0°C (45°F) [RH = 93%]
Pressure (altimeter): 30.00 inches Hg (1016.0 mb)
Winds: from the SW (220 degrees) at 13 MPH (11 knots; 5.7 m/s)
Visibility: 1.55 miles (2.49 km)
Ceiling: 500 feet AGL
Clouds: broken clouds at 500 feet AGL
overcast cloud deck at 1700 feet AGL
Weather: -RA -DZ  (light rain, light drizzle)

METAR text: EGPF 242250Z AUTO 21011KT 1800 -DZ BKN006 OVC010 08/07 Q1016
Conditions at: EGPF (GLASGOW AIRPORT , GB) observed 2250 UTC 24 January 2020
Temperature: 8.0°C (46°F)
Dewpoint: 7.0°C (45°F) [RH = 93%]
Pressure (altimeter): 30.00 inches Hg (1016.0 mb)
Winds: from the SSW (210 degrees) at 13 MPH (11 knots; 5.7 m/s)
Visibility: 1.12 miles (1.80 km)
Ceiling: 600 feet AGL
Clouds: broken clouds at 600 feet AGL
overcast cloud deck at 1000 feet AGL
Weather: -DZ  (light drizzle)

METAR text: EGPF 242220Z AUTO 21011KT 2400 -RADZ BKN005 OVC010 08/07 Q1016
Conditions at: EGPF (GLASGOW AIRPORT , GB) observed 2220 UTC 24 January 2020
Temperature: 8.0°C (46°F)
Dewpoint: 7.0°C (45°F) [RH = 93%]
Pressure (altimeter): 30.00 inches Hg (1016.0 mb)
Winds: from the SSW (210 degrees) at 13 MPH (11 knots; 5.7 m/s)
Visibility: 1.49 miles (2.40 km)
Ceiling: 500 feet AGL
Clouds: broken clouds at 500 feet AGL
overcast cloud deck at 1000 feet AGL
Weather: -RA -DZ  (light rain, light drizzle)

METAR text: EGPF 242150Z AUTO 20011KT 2600 BR BKN006 OVC017 08/07 Q1017
Conditions at: EGPF (GLASGOW AIRPORT , GB) observed 2150 UTC 24 January 2020
Temperature: 8.0°C (46°F)
Dewpoint: 7.0°C (45°F) [RH = 93%]
Pressure (altimeter): 30.03 inches Hg (1017.0 mb)
Winds: from the SSW (200 degrees) at 13 MPH (11 knots; 5.7 m/s)
Visibility: 1.62 miles (2.61 km)
Ceiling: 600 feet AGL
Clouds: broken clouds at 600 feet AGL
overcast cloud deck at 1700 feet AGL
Weather: BR  (mist)

Forecast for: EGPF (GLASGOW AIRPORT , GB)
Text: TAF EGPF 260456Z 2606/2706 20009KT 9999 SCT020
Forecast period: 0600 to 0800 UTC 26 January 2020
Forecast type: FROM: standard forecast or significant change
Winds: from the SSW (200 degrees) at 10 MPH (9 knots; 4.6 m/s)
Visibility: 6 or more miles 10+ km)
Ceiling: at least 12,000 feet AGL
Clouds: scattered clouds at 2000 feet AGL
Weather: no significant weather forecast for this period
Text: TEMPO 2606/2610 7000 -RADZ BKN012
Forecast period: 0600 to 1000 UTC 26 January 2020
Forecast type: TEMPORARY: The following changes expected for less than half the time period
Visibility: 4 miles (7 km)
Ceiling: 1200 feet AGL
Clouds: broken clouds at 1200 feet AGL
Weather: -RA -DZ  (light rain, light drizzle)
Text: TEMPO 2606/2608 20015G25KT
Forecast period: 0600 to 0800 UTC 26 January 2020
Forecast type: TEMPORARY: The following changes expected for less than half the time period
Winds: from the SSW (200 degrees) at 17 MPH (15 knots; 7.7 m/s)
gusting to 29 MPH (25 knots; 12.9 m/s)
Visibility: missing
Ceiling: unknown
Clouds: missing
Weather: no significant weather forecast for this period
Text: PROB40
Forecast period: 0600 to 0800 UTC 26 January 2020
Forecast type: TEMPORARY: The following changes expected for less than half the time period
Winds: from the SSW (200 degrees) at 23 MPH (20 knots; 10.3 m/s)
gusting to 40 MPH (35 knots; 18.0 m/s)
Visibility: 1.86 miles (2.99 km)
Ceiling: unknown
Clouds: missing
Weather: RA DZ  (moderate rain, moderate drizzle)
Text: TEMPO 2606/2608 20020G35KT 3000 RADZ
Forecast period: 0800 to 1800 UTC 26 January 2020
Forecast type: BECOMING: Conditions expected to become as follows by 1100 UTC 26 January 2020
Winds: from the W (270 degrees) at 12 MPH (10 knots; 5.1 m/s)
Visibility: 6 or more miles 10+ km)
Ceiling: at least 12,000 feet AGL
Clouds: scattered clouds at 2000 feet AGL
Weather: no significant weather forecast for this period
Text: BECMG 2608/2611 27010KT
Forecast period: 1000 to 1500 UTC 26 January 2020
Forecast type: TEMPORARY: The following changes expected for less than half the time period
Visibility: 4 miles (6 km)
Ceiling: unknown
Clouds: missing
Weather: SHRA  (rain showers)
Text: PROB40
Forecast period: 1800 to 2300 UTC 26 January 2020
Forecast type: BECOMING: Conditions expected to become as follows by 2100 UTC 26 January 2020
Winds: from the E (100 degrees) at 10 MPH (9 knots; 4.6 m/s)
Visibility: 6 or more miles 10+ km)
Ceiling: at least 12,000 feet AGL
Clouds: scattered clouds at 2000 feet AGL
Weather: no significant weather forecast for this period
Text: TEMPO 2610/2615 6000 SHRA
Forecast period: 2200 UTC 26 January 2020 to 0400 UTC 27 January 2020
Forecast type: TEMPORARY: The following changes expected for less than half the time period
Visibility: 4 miles (6 km)
Ceiling: 1400 feet AGL
Clouds: broken clouds at 1400 feet AGL
Weather: SHRA SHSN  (rain showers, snow showers)
Text: BECMG 2618/2621 10009KT
Forecast period: 2300 UTC 26 January 2020 to 0600 UTC 27 January 2020
Forecast type: BECOMING: Conditions expected to become as follows by 0200 UTC 27 January 2020
Winds: from the SSW (200 degrees) at 14 MPH (12 knots; 6.2 m/s)
Visibility: 6 or more miles 10+ km)
Ceiling: at least 12,000 feet AGL
Clouds: scattered clouds at 2000 feet AGL
Weather: no significant weather forecast for this period
Text: TEMPO 2622/2704 6000 SHRASN BKN014
Forecast period: 0000 to 0600 UTC 27 January 2020
Forecast type: TEMPORARY: The following changes expected for less than half the time period
Winds: from the SSW (200 degrees) at 17 MPH (15 knots; 7.7 m/s)
gusting to 29 MPH (25 knots; 12.9 m/s)
Visibility: missing
Ceiling: unknown
Clouds: missing
Weather: no significant weather forecast for this period